createdAt,value
2022-12-28T00:01:32.882Z,98825.06
2022-12-28T00:04:03.080Z,98831.78
2022-12-28T00:06:29.914Z,98827.28
2022-12-28T00:08:57.344Z,98824.47
2022-12-28T00:11:30.940Z,98813.03
2022-12-28T00:14:02.179Z,98816.00
2022-12-28T00:16:35.393Z,98802.31
2022-12-28T00:19:06.436Z,98798.84
2022-12-28T00:21:34.042Z,98802.91
2022-12-28T00:24:01.931Z,98789.03
2022-12-28T00:26:31.650Z,98782.69
2022-12-28T00:29:04.331Z,98770.22
2022-12-28T00:31:34.024Z,98764.28
2022-12-28T00:34:02.203Z,98763.19
2022-12-28T00:37:10.973Z,98757.31
2022-12-28T00:39:15.196Z,98745.97
2022-12-28T00:41:41.733Z,98749.56
2022-12-28T00:44:08.948Z,98756.06
2022-12-28T00:46:35.757Z,98740.72
2022-12-28T00:49:02.314Z,98732.88
2022-12-28T00:51:28.877Z,98736.69
2022-12-28T00:53:55.412Z,98726.28
2022-12-28T00:56:23.163Z,98721.41
2022-12-28T00:58:50.120Z,98722.25
2022-12-28T01:01:21.871Z,98720.09
2022-12-28T01:03:49.124Z,98720.63
2022-12-28T01:06:19.076Z,98721.03
2022-12-28T01:08:46.184Z,98715.41
2022-12-28T01:11:17.882Z,98713.63
2022-12-28T01:13:45.029Z,98715.94
2022-12-28T01:16:18.777Z,98711.69
2022-12-28T01:18:46.961Z,98712.09
2022-12-28T01:21:21.500Z,98708.44
2022-12-28T01:23:48.967Z,98705.81
2022-12-28T01:26:16.625Z,98710.00
2022-12-28T01:28:43.393Z,98712.22
2022-12-28T01:31:16.321Z,98718.16
2022-12-28T01:33:43.536Z,98705.69
2022-12-28T01:36:18.610Z,98694.41
2022-12-28T01:38:46.430Z,98689.41
2022-12-28T01:41:17.156Z,98694.09
2022-12-28T01:43:54.081Z,98684.69
2022-12-28T01:46:29.824Z,98677.50
2022-12-28T01:49:16.611Z,98681.22
2022-12-28T01:51:49.042Z,98681.66
2022-12-28T01:54:18.392Z,98675.69
2022-12-28T01:56:45.974Z,98673.84
2022-12-28T01:59:12.778Z,98667.69
2022-12-28T02:01:40.280Z,98649.50
2022-12-28T02:04:06.914Z,98655.44
2022-12-28T02:06:33.600Z,98637.16
2022-12-28T02:09:13.289Z,98633.69
2022-12-28T02:11:41.318Z,98647.25
2022-12-28T02:14:09.130Z,98638.50
2022-12-28T02:16:35.945Z,98633.00
2022-12-28T02:19:04.472Z,98620.00
2022-12-28T02:21:57.417Z,98617.53
2022-12-28T02:25:12.896Z,98621.50
2022-12-28T02:28:07.907Z,98617.13
2022-12-28T02:30:47.083Z,98623.94
2022-12-28T02:33:31.795Z,98612.66
2022-12-28T02:36:13.007Z,98620.16
2022-12-28T02:38:53.491Z,98614.78
2022-12-28T02:41:25.360Z,98615.63
2022-12-28T02:43:54.093Z,98615.50
2022-12-28T02:46:48.288Z,98603.63
2022-12-28T02:49:46.289Z,98587.34
2022-12-28T02:52:24.492Z,98576.66
2022-12-28T02:55:27.625Z,98582.31
2022-12-28T02:58:12.583Z,98573.56
2022-12-28T03:01:06.095Z,98570.72
2022-12-28T03:04:05.663Z,98560.03
2022-12-28T03:07:26.987Z,98547.56
2022-12-28T03:10:26.640Z,98550.31
2022-12-28T03:13:27.659Z,98538.44
2022-12-28T03:16:02.613Z,98538.03
2022-12-28T03:18:51.656Z,98541.34
2022-12-28T03:21:39.091Z,98539.84
2022-12-28T03:24:29.474Z,98539.63
2022-12-28T03:27:21.372Z,98535.31
2022-12-28T03:30:18.670Z,98529.16
2022-12-28T03:32:49.054Z,98525.25
2022-12-28T03:35:18.052Z,98514.75
2022-12-28T03:38:00.042Z,98511.19
2022-12-28T03:40:52.483Z,98510.06
2022-12-28T03:43:41.198Z,98512.50
2022-12-28T03:46:31.250Z,98500.97
2022-12-28T03:49:02.491Z,98491.84
2022-12-28T03:51:32.567Z,98486.59
2022-12-28T03:53:59.174Z,98490.69
2022-12-28T03:56:28.572Z,98476.53
2022-12-28T03:58:56.384Z,98473.38
2022-12-28T04:01:23.183Z,98471.53
2022-12-28T04:03:50.176Z,98473.22
2022-12-28T04:06:19.717Z,98466.22
2022-12-28T04:08:47.768Z,98467.72
2022-12-28T04:11:14.463Z,98467.38
2022-12-28T04:13:41.013Z,98469.66
2022-12-28T04:16:11.872Z,98468.81
2022-12-28T04:18:39.289Z,98467.84
2022-12-28T04:21:06.109Z,98476.75
2022-12-28T04:23:32.760Z,98467.78
2022-12-28T04:26:00.201Z,98463.22
2022-12-28T04:28:26.962Z,98456.09
2022-12-28T04:30:53.676Z,98451.09
2022-12-28T04:33:20.327Z,98446.31
2022-12-28T04:35:46.839Z,98447.53
2022-12-28T04:38:13.595Z,98445.56
2022-12-28T04:40:40.051Z,98443.28
2022-12-28T04:43:06.714Z,98444.41
2022-12-28T04:45:33.347Z,98443.47
2022-12-28T04:47:59.923Z,98442.34
2022-12-28T04:50:28.143Z,98440.44
2022-12-28T04:52:54.830Z,98444.13
2022-12-28T04:55:33.123Z,98431.84
2022-12-28T04:58:00.473Z,98430.59
2022-12-28T05:00:27.158Z,98424.41
2022-12-28T05:02:53.690Z,98413.81
2022-12-28T05:05:20.186Z,98412.03
2022-12-28T05:07:46.655Z,98414.97
2022-12-28T05:10:13.151Z,98415.47
2022-12-28T05:12:39.667Z,98413.28
2022-12-28T05:15:07.168Z,98412.03
2022-12-28T05:17:33.816Z,98415.34
2022-12-28T05:20:00.348Z,98416.03
2022-12-28T05:22:27.046Z,98409.03
2022-12-28T05:24:53.669Z,98416.31
2022-12-28T05:27:20.180Z,98413.28
2022-12-28T05:29:46.875Z,98401.56
2022-12-28T05:32:13.455Z,98404.50
2022-12-28T05:34:40.211Z,98400.47
2022-12-28T05:37:06.658Z,98401.63
2022-12-28T05:39:33.200Z,98395.22
2022-12-28T05:42:00.739Z,98394.72
2022-12-28T05:44:27.426Z,98401.47
2022-12-28T05:46:54.000Z,98393.56
2022-12-28T05:49:20.689Z,98396.06
2022-12-28T05:51:51.801Z,98379.53
2022-12-28T05:54:18.384Z,98379.19
2022-12-28T05:56:45.506Z,98382.16
2022-12-28T05:59:13.558Z,98376.94
2022-12-28T06:01:44.061Z,98369.91
2022-12-28T06:04:19.780Z,98373.72
2022-12-28T06:06:48.106Z,98371.53
2022-12-28T06:09:15.352Z,98367.88
2022-12-28T06:11:42.894Z,98372.28
2022-12-28T06:14:09.665Z,98369.34
2022-12-28T06:16:41.778Z,98370.84
2022-12-28T06:19:14.726Z,98367.28
2022-12-28T06:21:42.452Z,98365.25
2022-12-28T06:24:10.862Z,98357.31
2022-12-28T06:26:39.616Z,98353.66
2022-12-28T06:29:06.594Z,98351.00
2022-12-28T06:31:38.164Z,98356.28
2022-12-28T06:34:07.480Z,98344.91
2022-12-28T06:36:43.203Z,98347.88
2022-12-28T06:39:13.952Z,98344.25
2022-12-28T06:41:42.191Z,98339.69
2022-12-28T06:44:12.317Z,98334.25
2022-12-28T06:46:39.736Z,98332.41
2022-12-28T06:49:06.417Z,98331.66
2022-12-28T06:51:38.463Z,98329.91
2022-12-28T06:54:05.476Z,98324.06
2022-12-28T06:56:35.204Z,98324.66
2022-12-28T06:59:04.143Z,98329.91
2022-12-28T07:01:36.424Z,98323.38
2022-12-28T07:04:05.608Z,98315.19
2022-12-28T07:06:37.736Z,98313.09
2022-12-28T07:09:09.745Z,98309.38
2022-12-28T07:11:36.919Z,98303.47
2022-12-28T07:14:03.537Z,98310.09
2022-12-28T07:18:58.787Z,98308.06
2022-12-28T07:21:29.975Z,98309.16
2022-12-28T07:23:57.783Z,98315.41
2022-12-28T07:26:31.913Z,98308.72
2022-12-28T07:29:02.007Z,98313.91
2022-12-28T07:31:43.722Z,98314.63
2022-12-28T07:34:11.444Z,98307.38
2022-12-28T07:36:38.110Z,98305.66
2022-12-28T07:39:05.087Z,98308.88
2022-12-28T07:41:34.143Z,98306.66
2022-12-28T07:44:01.652Z,98309.28
2022-12-28T07:46:32.337Z,98306.00
2022-12-28T07:48:59.291Z,98296.25
2022-12-28T07:51:32.264Z,98299.53
2022-12-28T07:53:59.950Z,98301.88
2022-12-28T07:56:29.220Z,98295.91
2022-12-28T07:58:59.682Z,98294.47
2022-12-28T08:01:30.234Z,98295.03
2022-12-28T08:04:01.170Z,98289.38
2022-12-28T08:06:30.734Z,98296.41
2022-12-28T08:09:00.713Z,98293.19
2022-12-28T08:11:31.653Z,98289.63
2022-12-28T08:13:59.661Z,98281.13
2022-12-28T08:16:30.643Z,98290.84
2022-12-28T08:18:57.732Z,98275.78
2022-12-28T08:21:28.968Z,98285.72
2022-12-28T08:23:57.410Z,98287.44
2022-12-28T08:26:31.064Z,98284.44
2022-12-28T08:29:02.466Z,98277.50
2022-12-28T08:31:33.859Z,98287.06
2022-12-28T08:34:03.461Z,98289.22
2022-12-28T08:36:30.122Z,98290.88
2022-12-28T08:38:57.557Z,98286.78
2022-12-28T08:41:26.650Z,98291.00
2022-12-28T08:43:54.180Z,98295.31
2022-12-28T08:46:24.609Z,98291.03
2022-12-28T08:48:54.226Z,98293.66
2022-12-28T08:51:35.922Z,98293.25
2022-12-28T08:54:03.085Z,98293.84
2022-12-28T08:56:37.255Z,98286.63
2022-12-28T08:59:05.083Z,98290.63
2022-12-28T09:01:43.670Z,98290.28
2022-12-28T09:04:22.116Z,98287.09
2022-12-28T09:06:49.514Z,98282.22
2022-12-28T09:09:19.250Z,98292.91
2022-12-28T09:11:47.951Z,98295.34
2022-12-28T09:14:22.532Z,98293.09
2022-12-28T09:16:50.492Z,98295.44
2022-12-28T09:19:17.076Z,98299.00
2022-12-28T09:21:45.272Z,98290.06
2022-12-28T09:24:13.547Z,98295.72
2022-12-28T09:26:40.641Z,98299.06
2022-12-28T09:29:12.125Z,98294.31
2022-12-28T09:31:40.453Z,98293.66
2022-12-28T09:36:57.832Z,98296.38
2022-12-28T09:39:25.104Z,98300.97
2022-12-28T09:42:04.355Z,98293.47
2022-12-28T09:44:55.736Z,98295.06
2022-12-28T09:47:38.933Z,98292.63
2022-12-28T09:50:18.258Z,98294.28
2022-12-28T09:53:06.464Z,98295.78
2022-12-28T09:55:36.165Z,98296.72
2022-12-28T09:58:05.183Z,98296.53
2022-12-28T10:00:43.827Z,98291.47
2022-12-28T10:03:20.510Z,98295.97
2022-12-28T10:05:47.793Z,98288.81
2022-12-28T10:08:20.492Z,98289.34
2022-12-28T10:10:49.709Z,98293.75
2022-12-28T10:16:21.164Z,98295.88
2022-12-28T10:18:49.352Z,98293.16
2022-12-28T10:21:21.664Z,98290.16
2022-12-28T10:24:29.837Z,98280.78
2022-12-28T10:26:47.027Z,98279.91
2022-12-28T10:29:23.431Z,98277.63
2022-12-28T10:32:04.019Z,98269.88
2022-12-28T10:34:34.154Z,98271.28
2022-12-28T10:37:27.321Z,98274.75
2022-12-28T10:40:00.008Z,98263.19
2022-12-28T10:42:35.842Z,98256.72
2022-12-28T10:45:17.906Z,98253.03
2022-12-28T10:47:50.216Z,98253.25
2022-12-28T10:50:50.610Z,98243.47
2022-12-28T10:53:31.819Z,98238.03
2022-12-28T10:56:13.541Z,98241.38
2022-12-28T10:58:46.054Z,98247.72
2022-12-28T11:01:12.790Z,98240.59
2022-12-28T11:03:44.393Z,98230.94
2022-12-28T11:06:26.827Z,98235.56
2022-12-28T11:09:12.894Z,98225.44
2022-12-28T11:11:40.903Z,98223.16
2022-12-28T11:14:37.643Z,98221.47
2022-12-28T11:17:24.895Z,98214.75
2022-12-28T11:20:03.449Z,98209.72
2022-12-28T11:22:30.530Z,98204.91
2022-12-28T11:25:01.504Z,98196.63
2022-12-28T11:27:28.594Z,98188.84
2022-12-28T11:29:56.272Z,98194.63
2022-12-28T11:32:51.218Z,98197.38
2022-12-28T11:35:27.449Z,98181.81
2022-12-28T11:38:02.654Z,98186.66
2022-12-28T11:40:52.524Z,98174.44
2022-12-28T11:43:32.860Z,98167.00
2022-12-28T11:46:00.492Z,98167.09
2022-12-28T11:48:42.180Z,98165.72
2022-12-28T11:51:28.048Z,98163.09
2022-12-28T11:54:05.203Z,98170.34
2022-12-28T11:56:43.915Z,98160.69
2022-12-28T11:59:34.342Z,98164.56
2022-12-28T12:02:23.567Z,98164.56
2022-12-28T12:04:50.157Z,98165.72
2022-12-28T12:07:30.746Z,98161.41
2022-12-28T12:10:34.275Z,98164.56
2022-12-28T12:13:23.127Z,98163.41
2022-12-28T12:15:52.188Z,98168.13
2022-12-28T12:18:25.156Z,98162.34
2022-12-28T12:21:08.984Z,98164.78
2022-12-28T12:23:51.198Z,98154.34
2022-12-28T12:26:35.364Z,98148.38
2022-12-28T12:29:14.689Z,98147.53
2022-12-28T12:32:02.046Z,98148.06
2022-12-28T12:34:54.486Z,98137.53
2022-12-28T12:37:54.326Z,98139.97
2022-12-28T12:40:57.166Z,98129.47
2022-12-28T12:44:03.606Z,98133.88
2022-12-28T12:46:51.612Z,98146.06
2022-12-28T12:49:40.058Z,98130.63
2022-12-28T12:52:42.846Z,98132.41
2022-12-28T12:55:22.542Z,98126.09
2022-12-28T12:58:26.182Z,98127.03
2022-12-28T13:01:19.393Z,98127.16
2022-12-28T13:03:47.285Z,98129.59
2022-12-28T13:06:23.573Z,98136.50
2022-12-28T13:09:00.402Z,98129.91
2022-12-28T13:11:31.493Z,98128.53
2022-12-28T13:13:58.195Z,98127.03
2022-12-28T13:16:29.528Z,98120.00
2022-12-28T13:19:04.297Z,98122.19
2022-12-28T13:21:45.427Z,98118.53
2022-12-28T13:24:31.026Z,98114.31
2022-12-28T13:27:00.649Z,98113.06
2022-12-28T13:29:35.841Z,98105.28
2022-12-28T13:32:02.421Z,98097.31
2022-12-28T13:34:35.929Z,98098.97
2022-12-28T13:37:14.825Z,98098.97
2022-12-28T13:39:42.434Z,98096.53
2022-12-28T13:42:18.773Z,98100.72
2022-12-28T13:44:54.040Z,98083.91
2022-12-28T13:47:38.128Z,98087.28
2022-12-28T13:50:20.908Z,98080.28
2022-12-28T13:53:03.095Z,98076.75
2022-12-28T13:55:38.737Z,98076.50
2022-12-28T13:58:15.244Z,98063.38
2022-12-28T14:00:47.847Z,98064.13
2022-12-28T14:03:16.023Z,98067.88
2022-12-28T14:05:47.566Z,98070.81
2022-12-28T14:08:17.219Z,98068.50
2022-12-28T14:10:47.200Z,98066.28
2022-12-28T14:13:14.849Z,98059.91
2022-12-28T14:15:42.280Z,98055.50
2022-12-28T14:18:14.805Z,98057.69
2022-12-28T14:20:53.868Z,98054.66
2022-12-28T14:23:22.099Z,98061.69
2022-12-28T14:25:50.667Z,98036.81
2022-12-28T14:28:42.596Z,98038.69
2022-12-28T14:31:12.639Z,98039.75
2022-12-28T14:33:57.043Z,98030.41
2022-12-28T14:36:30.015Z,98023.25
2022-12-28T14:39:04.762Z,98017.19
2022-12-28T14:41:46.791Z,98007.19
2022-12-28T14:44:19.972Z,98006.47
2022-12-28T14:46:46.679Z,98002.78
2022-12-28T14:49:28.489Z,98009.50
2022-12-28T14:52:08.120Z,98003.00
2022-12-28T14:54:54.015Z,97999.66
2022-12-28T14:57:44.069Z,97993.34
2022-12-28T15:00:16.454Z,97986.31
2022-12-28T15:02:43.225Z,97978.84
2022-12-28T15:05:38.647Z,97975.41
2022-12-28T15:08:06.169Z,97956.91
2022-12-28T15:10:41.043Z,97955.75
2022-12-28T15:13:07.687Z,97957.97
2022-12-28T15:15:34.576Z,97949.78
2022-12-28T15:18:01.118Z,97938.13
2022-12-28T15:20:27.731Z,97934.13
2022-12-28T15:22:54.210Z,97917.56
2022-12-28T15:25:21.037Z,97914.63
2022-12-28T15:27:52.694Z,97908.53
2022-12-28T15:30:24.360Z,97911.50
2022-12-28T15:32:55.509Z,97913.38
2022-12-28T15:35:22.052Z,97906.47
2022-12-28T15:37:48.844Z,97900.13
2022-12-28T15:40:15.452Z,97901.53
2022-12-28T15:42:46.173Z,97902.03
2022-12-28T15:45:13.851Z,97893.75
2022-12-28T15:47:40.573Z,97913.59
2022-12-28T15:50:07.778Z,97903.72
2022-12-28T15:52:34.703Z,97891.31
2022-12-28T15:55:01.688Z,97888.19
2022-12-28T15:57:29.131Z,97888.19
2022-12-28T15:59:56.305Z,97883.88
2022-12-28T16:02:23.825Z,97887.72
2022-12-28T16:04:50.613Z,97884.81
2022-12-28T16:07:19.045Z,97883.22
2022-12-28T16:09:46.336Z,97875.84
2022-12-28T16:12:17.271Z,97875.22
2022-12-28T16:14:46.768Z,97869.81
2022-12-28T16:17:14.535Z,97870.00
2022-12-28T16:19:41.540Z,97876.84
2022-12-28T16:22:08.077Z,97875.78
2022-12-28T16:24:34.893Z,97881.88
2022-12-28T16:27:01.475Z,97886.25
2022-12-28T16:29:27.972Z,97884.38
2022-12-28T16:31:55.271Z,97881.97
2022-12-28T16:34:22.130Z,97877.22
2022-12-28T16:36:48.865Z,97876.19
2022-12-28T16:39:17.887Z,97869.47
2022-12-28T16:41:44.533Z,97863.91
2022-12-28T16:44:17.466Z,97860.56
2022-12-28T16:46:44.162Z,97841.94
2022-12-28T16:49:11.263Z,97844.78
2022-12-28T16:51:40.465Z,97841.66
2022-12-28T16:54:08.477Z,97844.06
2022-12-28T16:56:35.145Z,97843.88
2022-12-28T16:59:01.659Z,97842.03
2022-12-28T17:01:28.995Z,97835.09
2022-12-28T17:04:01.691Z,97833.94
2022-12-28T17:06:30.189Z,97831.31
2022-12-28T17:08:56.653Z,97813.44
2022-12-28T17:11:23.139Z,97802.94
2022-12-28T17:13:49.659Z,97791.72
2022-12-28T17:16:16.122Z,97797.31
2022-12-28T17:18:42.722Z,97790.28
2022-12-28T17:21:10.254Z,97793.22
2022-12-28T17:23:39.490Z,97786.91
2022-12-28T17:26:06.528Z,97779.97
2022-12-28T17:28:33.156Z,97779.03
2022-12-28T17:31:14.186Z,97778.53
2022-12-28T17:33:46.730Z,97759.88
2022-12-28T17:36:13.921Z,97762.28
2022-12-28T17:38:41.781Z,97755.88
2022-12-28T17:41:17.160Z,97750.22
2022-12-28T17:43:53.223Z,97745.97
2022-12-28T17:46:21.260Z,97744.25
2022-12-28T17:48:48.112Z,97733.00
2022-12-28T17:51:14.991Z,97718.31
2022-12-28T17:53:41.778Z,97720.28
2022-12-28T17:56:13.433Z,97727.56
2022-12-28T17:58:41.858Z,97716.59
2022-12-28T18:01:09.175Z,97714.09
2022-12-28T18:03:37.666Z,97713.97
2022-12-28T18:06:05.089Z,97707.09
2022-12-28T18:08:32.549Z,97699.09
2022-12-28T18:10:59.517Z,97700.56
2022-12-28T18:13:25.995Z,97688.16
2022-12-28T18:15:52.523Z,97692.44
2022-12-28T18:18:19.674Z,97688.56
2022-12-28T18:21:01.316Z,97678.34
2022-12-28T18:23:28.543Z,97672.41
2022-12-28T18:26:07.795Z,97680.16
2022-12-28T18:28:36.251Z,97680.63
2022-12-28T18:31:04.831Z,97673.72
2022-12-28T18:33:34.149Z,97673.38
2022-12-28T18:36:13.936Z,97679.56
2022-12-28T18:38:44.017Z,97680.41
2022-12-28T18:41:13.565Z,97674.16
2022-12-28T18:43:40.512Z,97678.34
2022-12-28T18:46:08.914Z,97673.81
2022-12-28T18:48:39.630Z,97672.72
2022-12-28T18:51:09.445Z,97670.31
2022-12-28T18:53:36.611Z,97672.31
2022-12-28T18:56:11.142Z,97670.44
2022-12-28T18:58:40.113Z,97668.66
2022-12-28T19:04:10.282Z,97665.41
2022-12-28T19:06:37.909Z,97667.34
2022-12-28T19:09:06.325Z,97658.59
2022-12-28T19:11:33.047Z,97658.72
2022-12-28T19:14:05.536Z,97656.78
2022-12-28T19:16:32.695Z,97661.00
2022-12-28T19:19:02.522Z,97652.19
2022-12-28T19:21:41.196Z,97652.84
2022-12-28T19:24:18.541Z,97652.97
2022-12-28T19:26:46.993Z,97655.63
2022-12-28T19:29:16.046Z,97650.00
2022-12-28T19:31:42.938Z,97651.78
2022-12-28T19:34:09.661Z,97641.78
2022-12-28T19:36:36.273Z,97632.94
2022-12-28T19:39:02.848Z,97639.16
2022-12-28T19:41:29.376Z,97623.84
2022-12-28T19:43:56.003Z,97622.88
2022-12-28T19:46:31.712Z,97626.22
2022-12-28T19:49:00.692Z,97621.78
2022-12-28T19:51:31.044Z,97612.91
2022-12-28T19:53:58.231Z,97604.69
2022-12-28T19:56:25.093Z,97597.88
2022-12-28T19:58:51.581Z,97596.00
2022-12-28T20:01:25.182Z,97592.88
2022-12-28T20:03:52.228Z,97597.97
2022-12-28T20:06:22.306Z,97586.91
2022-12-28T20:08:51.983Z,97594.78
2022-12-28T20:11:21.181Z,97586.28
2022-12-28T20:13:57.648Z,97594.78
2022-12-28T20:16:27.213Z,97585.13
2022-12-28T20:18:55.398Z,97581.91
2022-12-28T20:21:25.460Z,97591.97
2022-12-28T20:23:54.538Z,97585.50
2022-12-28T20:26:24.774Z,97579.28
2022-12-28T20:28:52.266Z,97575.34
2022-12-28T20:31:19.571Z,97570.94
2022-12-28T20:33:46.968Z,97572.38
2022-12-28T20:36:17.845Z,97572.63
2022-12-28T20:38:45.579Z,97568.34
2022-12-28T20:41:42.611Z,97572.75
2022-12-28T20:44:12.970Z,97569.78
2022-12-28T20:46:41.337Z,97563.69
2022-12-28T20:49:07.961Z,97564.75
2022-12-28T20:51:34.596Z,97561.25
2022-12-28T20:54:01.561Z,97550.75
2022-12-28T20:56:28.084Z,97546.84
2022-12-28T20:58:54.692Z,97542.53
2022-12-28T21:01:21.838Z,97530.38
2022-12-28T21:03:48.834Z,97547.56
2022-12-28T21:06:15.465Z,97545.91
2022-12-28T21:08:41.991Z,97535.03
2022-12-28T21:11:08.520Z,97536.69
2022-12-28T21:13:38.089Z,97532.56
2022-12-28T21:16:09.972Z,97529.66
2022-12-28T21:18:36.869Z,97534.91
2022-12-28T21:21:03.995Z,97525.16
2022-12-28T21:23:32.166Z,97527.78
2022-12-28T21:26:06.631Z,97527.19
2022-12-28T21:28:34.339Z,97523.69
2022-12-28T21:31:03.506Z,97524.91
2022-12-28T21:33:30.670Z,97517.50
2022-12-28T21:35:59.338Z,97507.97
2022-12-28T21:38:26.557Z,97505.13
2022-12-28T21:41:12.888Z,97498.66
2022-12-28T21:43:40.114Z,97499.88
2022-12-28T21:46:16.608Z,97502.13
2022-12-28T21:48:43.136Z,97490.06
2022-12-28T21:51:34.934Z,97493.75
2022-12-28T21:54:09.620Z,97502.84
2022-12-28T21:56:36.808Z,97495.94
2022-12-28T21:59:05.189Z,97488.19
2022-12-28T22:01:51.006Z,97489.94
2022-12-28T22:04:39.969Z,97478.63
2022-12-28T22:07:11.149Z,97475.88
2022-12-28T22:09:56.890Z,97478.38
2022-12-28T22:12:34.706Z,97472.31
2022-12-28T22:15:39.026Z,97476.72
2022-12-28T22:18:30.006Z,97466.31
2022-12-28T22:21:02.996Z,97464.66
2022-12-28T22:23:34.370Z,97453.31
2022-12-28T22:26:01.367Z,97458.06
2022-12-28T22:28:27.802Z,97458.44
2022-12-28T22:30:54.335Z,97453.78
2022-12-28T22:33:20.811Z,97449.84
2022-12-28T22:35:47.289Z,97449.19
2022-12-28T22:38:13.818Z,97440.41
2022-12-28T22:40:40.297Z,97440.50
2022-12-28T22:43:06.828Z,97449.94
2022-12-28T22:45:33.313Z,97433.94
2022-12-28T22:47:59.779Z,97432.53
2022-12-28T22:50:28.281Z,97435.97
2022-12-28T22:52:56.755Z,97431.53
2022-12-28T22:55:23.243Z,97435.34
2022-12-28T22:57:49.778Z,97425.44
2022-12-28T23:00:16.477Z,97426.25
2022-12-28T23:02:43.533Z,97423.25
2022-12-28T23:05:10.423Z,97424.09
2022-12-28T23:07:38.611Z,97412.13
2022-12-28T23:10:07.731Z,97409.69
2022-12-28T23:12:34.444Z,97411.84
2022-12-28T23:15:16.293Z,97407.06
2022-12-28T23:17:42.889Z,97404.81
2022-12-28T23:20:30.185Z,97401.56
2022-12-28T23:23:15.528Z,97394.44
2022-12-28T23:26:00.855Z,97401.22
2022-12-28T23:28:27.534Z,97397.78
2022-12-28T23:30:56.309Z,97406.25
2022-12-28T23:33:23.750Z,97408.38
2022-12-28T23:35:50.479Z,97401.94
2022-12-28T23:38:17.045Z,97393.34
2022-12-28T23:40:43.798Z,97396.94
2022-12-28T23:43:10.360Z,97404.56
2022-12-28T23:45:36.833Z,97412.91
2022-12-28T23:48:05.112Z,97402.25
2022-12-28T23:50:32.134Z,97405.16
2022-12-28T23:52:58.605Z,97411.25
2022-12-28T23:55:25.153Z,97399.38
2022-12-28T23:57:51.769Z,97399.22
